Time,TemperatureF,DewpointF,PressureIn,WindDirection,WindDirectionDegrees,WindSpeedMPH,WindSpeedGustMPH,Humidity,HourlyPrecipIn,Conditions,Clouds,dailyrainin,SoftwareType,DateUTC
2013-06-12 00:00:00,69.6,63.9,29.71,NNE,15,0.0,0.0,82,0.00,,---,0.00,VWS V14.01,2013-06-12 05:00:00,
2013-06-12 00:30:00,68.3,62.9,29.75,North,360,0.0,1.0,83,0.00,,---,0.00,VWS V14.01,2013-06-12 05:30:00,
2013-06-12 01:00:00,67.7,63.4,29.77,North,360,0.0,0.0,86,0.00,,---,0.00,VWS V14.01,2013-06-12 06:00:00,
2013-06-12 01:30:00,68.1,64.1,29.77,North,360,0.0,0.0,87,0.00,,---,0.00,VWS V14.01,2013-06-12 06:30:00,
2013-06-12 02:00:00,68.7,63.7,29.76,ESE,112,0.0,0.0,84,0.00,,---,0.00,VWS V14.01,2013-06-12 07:00:00,
2013-06-12 02:30:00,68.0,63.7,29.74,NNW,331,0.0,0.0,86,0.00,,---,0.00,VWS V14.01,2013-06-12 07:30:00,
2013-06-12 03:00:00,67.5,63.5,29.74,SW,217,0.0,4.0,87,0.00,,---,0.00,VWS V14.01,2013-06-12 08:00:00,
2013-06-12 03:30:00,67.4,63.1,29.74,NNE,15,0.0,5.0,86,0.00,,---,0.00,VWS V14.01,2013-06-12 08:30:00,
2013-06-12 04:00:00,67.1,62.8,29.77,NE,35,0.0,2.0,86,0.01,,---,0.01,VWS V14.01,2013-06-12 09:00:00,
2013-06-12 04:30:00,67.4,62.4,29.78,NNE,23,0.0,3.0,84,0.01,,---,0.01,VWS V14.01,2013-06-12 09:30:00,
2013-06-12 05:00:00,67.3,62.3,29.76,NNW,328,0.0,2.0,84,0.01,,---,0.01,VWS V14.01,2013-06-12 10:00:00,
2013-06-12 05:30:00,66.8,61.8,29.75,NW,313,0.0,1.0,84,0.00,,---,0.01,VWS V14.01,2013-06-12 10:30:00,
2013-06-12 06:00:00,67.4,62.1,29.73,ESE,115,0.0,5.0,83,0.00,,---,0.01,VWS V14.01,2013-06-12 11:00:00,
2013-06-12 06:30:00,67.7,62.4,29.73,ESE,115,0.0,2.0,83,0.00,,---,0.01,VWS V14.01,2013-06-12 11:30:00,
2013-06-12 07:00:00,67.3,62.3,29.76,SW,222,5.0,10.0,84,0.00,,---,0.01,VWS V14.01,2013-06-12 12:00:00,
2013-06-12 07:30:00,68.1,63.1,29.79,North,351,0.0,7.0,84,0.00,,---,0.01,VWS V14.01,2013-06-12 12:30:00,
2013-06-12 08:00:00,69.1,64.1,29.79,South,174,0.0,5.0,84,0.00,,---,0.01,VWS V14.01,2013-06-12 13:00:00,
2013-06-12 08:30:00,69.4,63.7,29.75,SSE,156,0.0,4.0,82,0.00,,---,0.01,VWS V14.01,2013-06-12 13:30:00,
2013-06-12 09:00:00,69.1,63.4,29.76,SSW,202,0.0,2.0,82,0.00,,---,0.01,VWS V14.01,2013-06-12 14:00:00,
2013-06-12 09:30:00,67.8,61.8,29.78,SSW,210,0.0,1.0,81,0.00,,---,0.01,VWS V14.01,2013-06-12 14:30:00,
2013-06-12 10:00:00,66.3,62.0,29.63,SE,131,4.0,16.0,86,0.00,,---,0.01,VWS V14.01,2013-06-12 15:00:00,
2013-06-12 10:30:00,67.2,61.9,29.71,SSE,151,0.0,10.0,83,0.00,,---,0.01,VWS V14.01,2013-06-12 15:30:00,
2013-06-12 11:00:00,67.3,61.3,29.68,ESE,119,3.0,6.0,81,0.00,,---,0.01,VWS V14.01,2013-06-12 16:00:00,
2013-06-12 11:30:00,68.1,62.1,29.68,WNW,289,0.0,11.0,81,0.00,,---,0.01,VWS V14.01,2013-06-12 16:30:00,
2013-06-12 12:00:00,66.4,59.7,29.70,WSW,244,0.0,7.0,79,0.00,,---,0.01,VWS V14.01,2013-06-12 17:00:00,
2013-06-12 12:30:00,68.5,61.0,29.71,ESE,111,3.0,7.0,77,0.00,,---,0.01,VWS V14.01,2013-06-12 17:30:00,
2013-06-12 13:00:00,70.5,62.2,29.71,SSE,154,3.0,6.0,75,0.00,,---,0.01,VWS V14.01,2013-06-12 18:00:00,
2013-06-12 13:30:00,73.0,62.7,29.73,ESE,123,0.0,6.0,70,0.00,,---,0.01,VWS V14.01,2013-06-12 18:30:00,
2013-06-12 14:00:00,74.2,64.2,29.72,ESE,115,0.0,4.0,71,0.00,,---,0.01,VWS V14.01,2013-06-12 19:00:00,
2013-06-12 14:30:00,74.2,64.6,29.70,SSE,148,2.0,2.0,72,0.00,,---,0.01,VWS V14.01,2013-06-12 19:30:00,
2013-06-12 15:00:00,74.5,63.3,29.68,ESE,112,5.0,9.0,68,0.00,,---,0.01,VWS V14.01,2013-06-12 20:00:00,
2013-06-12 15:30:00,73.1,64.3,29.67,SE,128,0.0,10.0,74,0.00,,---,0.01,VWS V14.01,2013-06-12 20:30:00,
2013-06-12 16:00:00,72.5,63.0,29.65,SE,135,0.0,10.0,72,0.00,,---,0.01,VWS V14.01,2013-06-12 21:00:00,
2013-06-12 16:30:00,71.5,61.6,29.60,ESE,120,0.0,5.0,71,0.00,,---,0.01,VWS V14.01,2013-06-12 21:30:00,
2013-06-12 17:00:00,67.1,58.9,29.62,WNW,296,2.0,7.0,75,0.00,,---,0.01,VWS V14.01,2013-06-12 22:00:00,
2013-06-12 17:30:00,65.5,58.8,29.61,East,92,0.0,5.0,79,0.00,,---,0.01,VWS V14.01,2013-06-12 22:30:00,
2013-06-12 18:00:00,64.4,58.5,29.58,SW,235,0.0,6.0,81,0.00,,---,0.01,VWS V14.01,2013-06-12 23:00:00,
2013-06-12 18:30:00,60.9,57.0,29.57,SE,125,4.0,6.0,87,0.01,,---,0.02,VWS V14.01,2013-06-12 23:30:00,
2013-06-12 19:00:00,59.8,56.9,29.57,ESE,123,0.0,9.0,90,0.02,,---,0.03,VWS V14.01,2013-06-13 00:00:00,
2013-06-12 19:30:00,62.3,60.6,29.64,NE,38,0.0,22.0,94,0.49,,---,0.50,VWS V14.01,2013-06-13 00:30:00,
2013-06-12 20:00:00,61.9,60.5,29.59,ESE,123,0.0,2.0,95,0.52,,---,0.54,VWS V14.01,2013-06-13 01:00:00,
2013-06-12 20:30:00,61.8,60.4,29.58,ESE,121,0.0,0.0,95,0.51,,---,0.54,VWS V14.01,2013-06-13 01:30:00,
2013-06-12 21:00:00,61.1,59.7,29.55,NW,310,0.0,3.0,95,0.05,,---,0.55,VWS V14.01,2013-06-13 02:00:00,
2013-06-12 21:30:00,61.3,59.9,29.59,SE,140,0.0,3.0,95,0.01,,---,0.55,VWS V14.01,2013-06-13 02:30:00,
2013-06-12 22:00:00,60.5,59.1,29.65,WNW,288,0.0,3.0,95,0.03,,---,0.57,VWS V14.01,2013-06-13 03:00:00,
2013-06-12 22:30:00,60.5,59.4,29.60,ESE,109,0.0,2.0,96,0.11,,---,0.66,VWS V14.01,2013-06-13 03:30:00,
2013-06-12 23:00:00,60.5,59.4,29.59,North,5,0.0,0.0,96,0.16,,---,0.71,VWS V14.01,2013-06-13 04:00:00,
2013-06-12 23:30:00,60.6,59.5,29.61,WSW,256,0.0,4.0,96,0.16,,---,0.73,VWS V14.01,2013-06-13 04:30:00,